createdAt,value
2022-12-20T00:02:45.090Z,11.60
2022-12-20T00:06:43.899Z,13.80
2022-12-20T00:10:06.848Z,14.00
2022-12-20T00:13:47.074Z,10.20
2022-12-20T00:17:40.749Z,11.50
2022-12-20T00:21:05.503Z,13.20
2022-12-20T00:24:40.402Z,10.40
2022-12-20T00:28:38.235Z,11.90
2022-12-20T00:32:00.312Z,11.80
2022-12-20T00:35:57.522Z,12.20
2022-12-20T00:39:21.488Z,13.30
2022-12-20T00:42:59.141Z,11.20
2022-12-20T00:46:36.987Z,10.00
2022-12-20T00:50:33.632Z,12.70
2022-12-20T00:53:58.110Z,10.40
2022-12-20T00:57:52.319Z,9.20
2022-12-20T01:01:31.153Z,9.50
2022-12-20T01:04:54.397Z,11.00
2022-12-20T01:08:33.833Z,8.90
2022-12-20T01:12:09.817Z,9.70
2022-12-20T01:16:21.684Z,10.50
2022-12-20T01:19:44.283Z,10.20
2022-12-20T01:23:21.391Z,11.20
2022-12-20T01:26:59.210Z,8.40
2022-12-20T01:30:56.098Z,9.00
2022-12-20T01:34:18.222Z,9.60
2022-12-20T01:38:14.809Z,9.90
2022-12-20T01:41:37.994Z,9.40
2022-12-20T01:45:27.664Z,7.90
2022-12-20T01:49:09.041Z,8.10
2022-12-20T01:52:39.430Z,9.00
2022-12-20T01:56:11.070Z,9.30
2022-12-20T01:59:50.396Z,7.30
2022-12-20T02:03:42.182Z,8.00
2022-12-20T02:07:06.527Z,9.50
2022-12-20T02:11:38.226Z,7.70
2022-12-20T02:15:44.805Z,9.50
2022-12-20T02:19:37.993Z,8.60
2022-12-20T02:23:06.945Z,7.40
2022-12-20T02:27:19.187Z,10.10
2022-12-20T02:30:44.955Z,9.40
2022-12-20T02:34:40.826Z,8.70
2022-12-20T02:38:36.976Z,8.70
2022-12-20T02:42:24.862Z,8.10
2022-12-20T02:45:47.573Z,8.40
2022-12-20T02:49:30.926Z,6.90
2022-12-20T02:53:23.002Z,8.70
2022-12-20T02:57:14.148Z,9.90
2022-12-20T03:00:42.294Z,9.80
2022-12-20T03:04:15.760Z,10.30
2022-12-20T03:07:53.500Z,10.20
2022-12-20T03:11:29.682Z,8.30
2022-12-20T03:15:26.283Z,9.10
2022-12-20T03:19:08.725Z,10.90
2022-12-20T03:22:49.754Z,10.30
2022-12-20T03:26:12.327Z,8.40
2022-12-20T03:29:50.265Z,12.00
2022-12-20T03:33:28.040Z,9.80
2022-12-20T03:37:05.289Z,12.20
2022-12-20T03:40:43.114Z,9.20
2022-12-20T03:44:20.621Z,8.20
2022-12-20T03:48:17.145Z,8.20
2022-12-20T03:51:39.311Z,8.90
2022-12-20T03:55:18.043Z,6.10
2022-12-20T03:58:54.594Z,8.60
2022-12-20T04:02:32.533Z,8.50
2022-12-20T04:06:10.494Z,9.50
2022-12-20T04:10:07.152Z,7.70
2022-12-20T04:13:28.977Z,8.90
2022-12-20T04:17:06.887Z,8.60
2022-12-20T04:21:04.639Z,7.50
2022-12-20T04:24:28.385Z,8.00
2022-12-20T04:28:24.878Z,8.20
2022-12-20T04:31:48.198Z,9.60
2022-12-20T04:35:25.819Z,8.90
2022-12-20T04:39:04.351Z,7.50
2022-12-20T04:42:41.173Z,7.40
2022-12-20T04:46:19.556Z,8.20
2022-12-20T04:49:56.635Z,7.60
2022-12-20T04:53:49.356Z,10.30
2022-12-20T04:57:41.466Z,7.80
2022-12-20T05:01:23.476Z,9.20
2022-12-20T05:04:46.388Z,7.90
2022-12-20T05:08:24.464Z,8.30
2022-12-20T05:12:20.986Z,7.60
2022-12-20T05:16:02.938Z,9.10
2022-12-20T05:19:39.223Z,7.90
2022-12-20T05:23:55.573Z,9.50
2022-12-20T05:27:18.873Z,12.00
2022-12-20T05:30:56.793Z,9.40
2022-12-20T05:34:34.061Z,10.30
2022-12-20T05:38:12.893Z,8.70
2022-12-20T05:41:50.266Z,11.60
2022-12-20T05:45:52.177Z,11.90
2022-12-20T05:49:43.470Z,10.60
2022-12-20T05:53:25.958Z,12.10
2022-12-20T05:57:09.942Z,11.40
2022-12-20T06:00:35.942Z,10.60
2022-12-20T06:04:13.561Z,12.80
2022-12-20T06:08:11.566Z,12.40
2022-12-20T06:11:33.911Z,11.80
2022-12-20T06:15:31.684Z,11.00
2022-12-20T06:18:56.800Z,10.90
2022-12-20T06:22:52.142Z,11.40
2022-12-20T06:26:37.180Z,10.20
2022-12-20T06:30:20.417Z,11.60
2022-12-20T06:34:15.572Z,8.70
2022-12-20T06:37:40.457Z,8.40
2022-12-20T06:41:16.964Z,10.30
2022-12-20T06:44:53.226Z,10.20
2022-12-20T06:48:49.753Z,10.80
2022-12-20T06:52:13.191Z,10.10
2022-12-20T06:55:53.506Z,8.00
2022-12-20T06:59:28.522Z,11.40
2022-12-20T07:03:24.951Z,11.40
2022-12-20T07:07:06.264Z,11.40
2022-12-20T07:10:47.988Z,11.30
2022-12-20T07:15:06.952Z,10.10
2022-12-20T07:19:24.469Z,14.60
2022-12-20T07:23:25.724Z,12.70
2022-12-20T07:27:03.408Z,17.70
2022-12-20T07:31:01.469Z,26.20
2022-12-20T07:34:23.681Z,15.10
2022-12-20T07:38:01.381Z,13.60
2022-12-20T07:41:39.070Z,13.20
2022-12-20T07:45:36.892Z,13.40
2022-12-20T07:48:59.613Z,14.70
2022-12-20T07:52:57.891Z,14.50
2022-12-20T07:56:45.350Z,16.50
2022-12-20T08:00:09.630Z,14.20
2022-12-20T08:03:53.360Z,15.40
2022-12-20T08:07:24.793Z,14.60
2022-12-20T08:11:21.880Z,18.20
2022-12-20T08:14:44.609Z,17.10
2022-12-20T08:18:21.695Z,14.10
2022-12-20T08:22:18.885Z,19.80
2022-12-20T08:25:42.607Z,14.20
2022-12-20T08:29:37.848Z,16.60
2022-12-20T08:33:19.058Z,17.80
2022-12-20T08:36:59.991Z,17.10
2022-12-20T08:40:41.214Z,13.20
2022-12-20T08:44:22.446Z,14.20
2022-12-20T08:47:44.768Z,14.00
2022-12-20T08:51:41.538Z,14.90
2022-12-20T08:55:27.707Z,15.00
2022-12-20T08:58:52.172Z,11.60
2022-12-20T09:02:50.354Z,13.20
2022-12-20T09:06:21.507Z,13.50
2022-12-20T09:10:10.374Z,15.60
2022-12-20T09:13:39.495Z,16.30
2022-12-20T09:17:29.571Z,13.40
2022-12-20T09:21:11.255Z,15.10
2022-12-20T09:24:33.539Z,15.20
2022-12-20T09:28:11.301Z,14.60
2022-12-20T09:32:08.141Z,17.40
2022-12-20T09:35:32.758Z,13.80
2022-12-20T09:39:07.893Z,15.50
2022-12-20T09:42:46.597Z,16.10
2022-12-20T09:46:43.987Z,22.90
2022-12-20T09:50:07.621Z,20.60
2022-12-20T09:53:46.797Z,26.90
2022-12-20T09:57:45.654Z,14.10
2022-12-20T10:01:25.352Z,22.50
2022-12-20T10:05:21.033Z,36.00
2022-12-20T10:09:13.739Z,25.30
2022-12-20T10:13:02.448Z,17.80
2022-12-20T10:16:40.690Z,15.50
2022-12-20T10:20:23.144Z,17.70
2022-12-20T10:24:16.041Z,15.80
2022-12-20T10:27:42.989Z,16.60
2022-12-20T10:31:21.301Z,22.00
2022-12-20T10:35:12.450Z,17.60
2022-12-20T10:38:47.745Z,23.00
2022-12-20T10:42:40.383Z,22.00
2022-12-20T10:46:39.726Z,20.20
2022-12-20T10:50:23.019Z,14.90
2022-12-20T10:54:01.683Z,16.80
2022-12-20T10:57:28.596Z,15.00
2022-12-20T11:01:25.645Z,16.10
2022-12-20T11:05:01.585Z,18.10
2022-12-20T11:08:51.264Z,16.40
2022-12-20T11:12:30.504Z,15.70
2022-12-20T11:16:34.654Z,15.60
2022-12-20T11:20:16.220Z,13.70
2022-12-20T11:24:01.552Z,14.30
2022-12-20T11:27:56.330Z,17.60
2022-12-20T11:31:46.809Z,15.80
2022-12-20T11:35:55.826Z,25.30
2022-12-20T11:40:01.836Z,18.50
2022-12-20T11:44:26.273Z,20.60
2022-12-20T11:48:26.171Z,19.70
2022-12-20T11:52:40.616Z,17.00
2022-12-20T11:56:12.809Z,16.00
2022-12-20T11:59:48.744Z,12.60
2022-12-20T12:03:39.263Z,12.90
2022-12-20T12:07:26.811Z,16.40
2022-12-20T12:11:55.584Z,23.40
2022-12-20T12:15:18.535Z,25.50
2022-12-20T12:19:01.644Z,14.20
2022-12-20T12:22:44.408Z,17.70
2022-12-20T12:26:20.315Z,12.00
2022-12-20T12:29:44.296Z,12.80
2022-12-20T12:33:38.460Z,11.00
2022-12-20T12:37:15.927Z,13.60
2022-12-20T12:41:20.080Z,15.40
2022-12-20T12:44:57.604Z,16.10
2022-12-20T12:48:35.563Z,12.00
2022-12-20T12:52:01.114Z,12.40
2022-12-20T12:55:45.569Z,13.70
2022-12-20T12:59:41.214Z,17.00
2022-12-20T13:03:16.029Z,16.50
2022-12-20T13:07:22.848Z,17.00
2022-12-20T13:10:45.108Z,14.20
2022-12-20T13:14:25.690Z,17.80
2022-12-20T13:18:22.734Z,13.50
2022-12-20T13:22:16.837Z,16.60
2022-12-20T13:25:57.990Z,16.40
2022-12-20T13:29:26.068Z,13.20
2022-12-20T13:33:03.770Z,13.10
2022-12-20T13:36:59.320Z,14.40
2022-12-20T13:40:39.008Z,13.80
2022-12-20T13:44:16.888Z,18.00
2022-12-20T13:48:11.160Z,19.10
2022-12-20T13:51:34.001Z,25.70
2022-12-20T13:55:38.758Z,22.90
2022-12-20T13:59:27.848Z,20.60
2022-12-20T14:02:50.686Z,26.30
2022-12-20T14:06:28.643Z,27.00
2022-12-20T14:10:28.203Z,17.10
2022-12-20T14:14:04.544Z,19.80
2022-12-20T14:17:31.317Z,16.70
2022-12-20T14:21:08.145Z,20.70
2022-12-20T14:25:05.520Z,19.40
2022-12-20T14:28:35.816Z,26.40
2022-12-20T14:32:06.392Z,22.60
2022-12-20T14:35:49.460Z,17.60
2022-12-20T14:39:24.919Z,21.50
2022-12-20T14:42:58.986Z,16.90
2022-12-20T14:46:41.236Z,14.30
2022-12-20T14:50:36.286Z,20.50
2022-12-20T14:53:59.700Z,15.30
2022-12-20T14:57:36.306Z,17.70
2022-12-20T15:01:35.848Z,15.40
2022-12-20T15:05:09.239Z,19.60
2022-12-20T15:08:40.831Z,18.00
2022-12-20T15:12:17.875Z,20.20
2022-12-20T15:16:20.097Z,20.10
2022-12-20T15:19:43.575Z,21.80
2022-12-20T15:23:48.102Z,21.40
2022-12-20T15:27:15.112Z,19.00
2022-12-20T15:31:13.543Z,18.50
2022-12-20T15:34:38.723Z,18.90
2022-12-20T15:38:25.498Z,21.90
2022-12-20T15:42:04.751Z,21.60
2022-12-20T15:45:55.517Z,19.40
2022-12-20T15:49:24.194Z,19.30
2022-12-20T15:52:56.994Z,18.60
2022-12-20T15:56:57.264Z,27.00
2022-12-20T16:00:20.101Z,21.10
2022-12-20T16:04:20.525Z,20.40
2022-12-20T16:07:43.302Z,18.60
2022-12-20T16:11:27.786Z,51.80
2022-12-20T16:15:22.987Z,35.60
2022-12-20T16:18:51.671Z,46.20
2022-12-20T16:22:24.430Z,26.20
2022-12-20T16:26:00.539Z,16.90
2022-12-20T16:29:38.229Z,18.50
2022-12-20T16:33:24.641Z,20.70
2022-12-20T16:36:53.322Z,36.00
2022-12-20T16:40:32.929Z,22.40
2022-12-20T16:44:16.319Z,24.50
2022-12-20T16:47:48.075Z,30.80
2022-12-20T16:51:46.909Z,19.20
2022-12-20T16:55:32.163Z,20.80
2022-12-20T16:59:20.132Z,21.70
2022-12-20T17:02:44.695Z,24.30
2022-12-20T17:06:22.007Z,25.70
2022-12-20T17:10:18.787Z,22.40
2022-12-20T17:13:44.143Z,22.80
2022-12-20T17:17:18.329Z,21.00
2022-12-20T17:20:55.950Z,21.70
2022-12-20T17:24:34.041Z,32.40
2022-12-20T17:28:12.620Z,19.90
2022-12-20T17:32:19.212Z,20.50
2022-12-20T17:35:41.408Z,30.70
2022-12-20T17:39:20.734Z,25.80
2022-12-20T17:43:15.896Z,22.00
2022-12-20T17:46:39.232Z,21.90
2022-12-20T17:50:18.130Z,24.90
2022-12-20T17:53:59.427Z,39.00
2022-12-20T17:57:32.201Z,23.00
2022-12-20T18:01:27.735Z,23.50
2022-12-20T18:05:13.238Z,31.40
2022-12-20T18:08:36.397Z,22.70
2022-12-20T18:12:13.298Z,25.40
2022-12-20T18:16:10.783Z,24.50
2022-12-20T18:19:32.863Z,22.80
2022-12-20T18:23:10.349Z,25.00
2022-12-20T18:26:48.149Z,20.10
2022-12-20T18:30:26.647Z,17.50
2022-12-20T18:34:22.937Z,15.00
2022-12-20T18:37:45.279Z,18.10
2022-12-20T18:41:25.645Z,16.60
2022-12-20T18:45:00.633Z,18.40
2022-12-20T18:48:59.318Z,20.00
2022-12-20T18:52:42.285Z,21.00
2022-12-20T18:56:30.125Z,19.10
2022-12-20T19:00:12.255Z,22.10
2022-12-20T19:03:34.801Z,22.90
2022-12-20T19:07:12.230Z,22.10
2022-12-20T19:10:51.332Z,19.40
2022-12-20T19:14:46.802Z,23.20
2022-12-20T19:18:27.926Z,19.60
2022-12-20T19:21:53.163Z,19.90
2022-12-20T19:25:50.474Z,28.50
2022-12-20T19:29:31.418Z,22.80
2022-12-20T19:32:55.332Z,18.30
2022-12-20T19:36:37.419Z,16.00
2022-12-20T19:40:28.104Z,16.60
2022-12-20T19:43:52.163Z,25.70
2022-12-20T19:47:29.275Z,21.70
2022-12-20T19:51:10.304Z,24.90
2022-12-20T19:55:03.366Z,54.60
2022-12-20T19:58:25.736Z,22.90
2022-12-20T20:02:03.485Z,19.50
2022-12-20T20:05:41.620Z,15.10
2022-12-20T20:09:18.339Z,20.60
2022-12-20T20:12:56.410Z,29.70
2022-12-20T20:16:33.607Z,18.90
2022-12-20T20:20:30.287Z,16.10
2022-12-20T20:23:54.299Z,17.70
2022-12-20T20:27:49.331Z,22.60
2022-12-20T20:31:14.584Z,19.20
2022-12-20T20:34:49.413Z,21.60
2022-12-20T20:38:46.584Z,19.10
2022-12-20T20:42:09.167Z,19.30
2022-12-20T20:45:48.055Z,22.20
2022-12-20T20:49:24.589Z,19.60
2022-12-20T20:53:02.140Z,19.80
2022-12-20T20:56:42.143Z,18.20
2022-12-20T21:00:36.774Z,16.90
2022-12-20T21:03:59.489Z,23.70
2022-12-20T21:07:37.232Z,16.90
2022-12-20T21:11:14.952Z,18.20
2022-12-20T21:15:21.225Z,19.60
2022-12-20T21:18:37.528Z,19.00
2022-12-20T21:22:16.882Z,21.90
2022-12-20T21:25:58.713Z,15.00
2022-12-20T21:29:30.245Z,17.40
2022-12-20T21:33:27.812Z,16.20
2022-12-20T21:37:08.869Z,15.30
2022-12-20T21:40:49.259Z,12.90
2022-12-20T21:44:12.689Z,17.10
2022-12-20T21:47:55.740Z,13.90
2022-12-20T21:51:45.840Z,19.10
2022-12-20T21:55:08.982Z,16.60
2022-12-20T21:58:47.372Z,15.00
2022-12-20T22:02:23.961Z,15.30
2022-12-20T22:06:21.313Z,15.60
2022-12-20T22:09:44.673Z,17.50
2022-12-20T22:13:21.308Z,13.90
2022-12-20T22:16:59.072Z,16.10
2022-12-20T22:20:37.099Z,15.90
2022-12-20T22:24:14.870Z,16.60
2022-12-20T22:27:52.004Z,12.70
2022-12-20T22:31:48.461Z,14.10
2022-12-20T22:35:30.144Z,17.00
2022-12-20T22:38:54.195Z,14.00
2022-12-20T22:42:30.127Z,14.70
2022-12-20T22:46:10.527Z,12.40
2022-12-20T22:50:04.782Z,12.70
2022-12-20T22:53:27.644Z,17.20
2022-12-20T22:57:04.827Z,16.80
2022-12-20T23:00:42.237Z,16.10
2022-12-20T23:04:38.829Z,15.70
2022-12-20T23:08:01.086Z,18.80
2022-12-20T23:11:58.280Z,16.70
2022-12-20T23:15:39.510Z,16.60
2022-12-20T23:19:02.446Z,15.60
2022-12-20T23:22:40.973Z,16.20
2022-12-20T23:26:17.919Z,15.70
2022-12-20T23:29:55.358Z,13.80
2022-12-20T23:33:52.495Z,12.50
2022-12-20T23:37:14.896Z,17.90
2022-12-20T23:41:14.458Z,17.70
2022-12-20T23:44:55.871Z,15.80
2022-12-20T23:48:37.351Z,16.00
2022-12-20T23:51:59.440Z,14.60
2022-12-20T23:55:37.265Z,15.90
2022-12-20T23:59:15.532Z,14.60
